createdAt,value
2019-05-20T00:00:00.848Z,9.20
2019-05-20T00:02:28.804Z,10.17
2019-05-20T00:04:56.790Z,10.67
2019-05-20T00:07:25.056Z,11.97
2019-05-20T00:09:53.075Z,12.93
2019-05-20T00:12:21.052Z,10.87
2019-05-20T00:14:48.976Z,10.53
2019-05-20T00:17:16.932Z,11.37
2019-05-20T00:19:44.926Z,11.23
2019-05-20T00:22:12.942Z,11.63
2019-05-20T00:24:40.932Z,12.10
2019-05-20T00:27:08.851Z,12.90
2019-05-20T00:29:36.843Z,12.00
2019-05-20T00:32:04.767Z,12.57
2019-05-20T00:34:35.572Z,12.37
2019-05-20T00:37:02.438Z,12.90
2019-05-20T00:39:30.451Z,13.57
2019-05-20T00:41:58.418Z,13.57
2019-05-20T00:44:26.403Z,16.73
2019-05-20T00:46:54.401Z,14.57
2019-05-20T00:49:22.380Z,14.33
2019-05-20T00:51:50.385Z,14.53
2019-05-20T00:54:18.342Z,14.30
2019-05-20T00:56:46.980Z,18.90
2019-05-20T00:59:14.975Z,14.57
2019-05-20T01:01:43.000Z,15.17
2019-05-20T01:04:11.014Z,13.57
2019-05-20T01:06:38.993Z,14.53
2019-05-20T01:09:07.911Z,13.37
2019-05-20T01:11:35.897Z,15.13
2019-05-20T01:14:03.856Z,13.47
2019-05-20T01:16:31.833Z,13.60
2019-05-20T01:18:59.842Z,12.70
2019-05-20T01:21:27.874Z,12.77
2019-05-20T01:23:55.903Z,12.07
2019-05-20T01:26:23.803Z,12.07
2019-05-20T01:28:51.737Z,11.63
2019-05-20T01:31:19.732Z,11.23
2019-05-20T01:33:47.704Z,10.53
2019-05-20T01:36:15.672Z,10.23
2019-05-20T01:38:43.615Z,12.10
2019-05-20T01:41:11.592Z,12.10
2019-05-20T01:43:39.634Z,10.53
2019-05-20T01:46:07.660Z,11.03
2019-05-20T01:48:35.671Z,9.57
2019-05-20T01:51:03.634Z,9.70
2019-05-20T01:53:31.558Z,9.93
2019-05-20T01:55:59.581Z,10.40
2019-05-20T01:58:27.543Z,9.20
2019-05-20T02:00:55.548Z,10.60
2019-05-20T02:03:31.564Z,8.80
2019-05-20T02:05:53.175Z,11.70
2019-05-20T02:08:21.169Z,9.90
2019-05-20T02:10:49.192Z,9.30
2019-05-20T02:13:17.162Z,9.63
2019-05-20T02:15:54.636Z,9.63
2019-05-20T02:18:22.626Z,8.73
2019-05-20T02:20:50.608Z,8.80
2019-05-20T02:23:18.577Z,9.07
2019-05-20T02:25:47.089Z,8.40
2019-05-20T02:28:15.391Z,9.80
2019-05-20T02:30:43.278Z,8.90
2019-05-20T02:33:11.360Z,8.33
2019-05-20T02:35:39.252Z,9.03
2019-05-20T02:38:07.147Z,9.60
2019-05-20T02:40:35.080Z,9.80
2019-05-20T02:43:03.097Z,15.97
2019-05-20T02:45:31.109Z,10.57
2019-05-20T02:47:59.100Z,6.90
2019-05-20T02:50:27.228Z,6.37
2019-05-20T02:52:55.188Z,6.10
2019-05-20T02:55:23.212Z,6.70
2019-05-20T02:57:51.124Z,6.30
2019-05-20T03:00:19.062Z,8.30
2019-05-20T03:02:47.026Z,5.83
2019-05-20T03:05:14.953Z,6.47
2019-05-20T03:07:43.071Z,7.13
2019-05-20T03:10:11.150Z,6.33
2019-05-20T03:12:39.140Z,6.07
2019-05-20T03:15:07.178Z,5.83
2019-05-20T03:17:35.145Z,6.60
2019-05-20T03:20:03.110Z,5.90
2019-05-20T03:22:31.083Z,4.90
2019-05-20T03:24:59.101Z,5.33
2019-05-20T03:27:27.000Z,5.20
2019-05-20T03:29:54.935Z,6.40
2019-05-20T03:32:23.021Z,5.57
2019-05-20T03:34:58.855Z,5.03
2019-05-20T03:37:20.605Z,4.77
2019-05-20T03:39:48.620Z,7.63
2019-05-20T03:42:16.563Z,5.23
2019-05-20T03:44:44.554Z,6.03
2019-05-20T03:47:12.539Z,4.90
2019-05-20T03:49:40.562Z,5.03
2019-05-20T03:52:08.514Z,4.73
2019-05-20T03:54:36.486Z,5.00
2019-05-20T03:57:04.423Z,5.50
2019-05-20T03:59:32.365Z,5.37
2019-05-20T04:02:00.328Z,8.43
2019-05-20T04:04:28.295Z,5.30
2019-05-20T04:06:56.211Z,5.40
2019-05-20T04:09:24.147Z,4.03
2019-05-20T04:11:52.065Z,4.90
2019-05-20T04:14:20.077Z,6.43
2019-05-20T04:16:51.072Z,4.60
2019-05-20T04:19:19.061Z,8.20
2019-05-20T04:21:47.126Z,3.97
2019-05-20T04:24:15.188Z,4.83
2019-05-20T04:26:43.150Z,3.80
2019-05-20T04:29:11.112Z,4.10
2019-05-20T04:31:39.053Z,4.97
2019-05-20T04:34:07.038Z,5.90
2019-05-20T04:36:35.010Z,4.93
2019-05-20T04:39:05.131Z,4.67
2019-05-20T04:41:35.637Z,4.70
2019-05-20T04:44:02.851Z,3.63
2019-05-20T04:46:30.828Z,4.13
2019-05-20T04:48:58.739Z,3.93
2019-05-20T04:51:26.722Z,4.37
2019-05-20T04:53:54.717Z,5.07
2019-05-20T04:56:22.605Z,3.70
2019-05-20T04:58:50.618Z,3.77
2019-05-20T05:01:18.564Z,3.70
2019-05-20T05:03:46.542Z,3.80
2019-05-20T05:06:14.586Z,4.97
2019-05-20T05:08:42.518Z,5.17
2019-05-20T05:11:10.488Z,5.17
2019-05-20T05:13:38.395Z,6.77
2019-05-20T05:16:06.287Z,6.97
2019-05-20T05:18:34.229Z,5.27
2019-05-20T05:21:02.260Z,4.33
2019-05-20T05:23:30.231Z,3.97
2019-05-20T05:25:59.999Z,3.27
2019-05-20T05:28:28.084Z,3.10
2019-05-20T05:30:56.218Z,3.30
2019-05-20T05:33:24.176Z,4.70
2019-05-20T05:35:53.574Z,6.10
2019-05-20T05:38:21.791Z,3.53
2019-05-20T05:40:49.748Z,6.40
2019-05-20T05:43:17.699Z,4.20
2019-05-20T05:45:45.640Z,3.63
2019-05-20T05:48:13.571Z,3.73
2019-05-20T05:50:41.583Z,3.93
2019-05-20T05:53:09.506Z,4.47
2019-05-20T05:55:37.449Z,4.20
2019-05-20T05:58:08.597Z,3.40
2019-05-20T06:00:35.013Z,6.47
2019-05-20T06:03:02.917Z,3.77
2019-05-20T06:05:31.761Z,4.63
2019-05-20T06:07:59.990Z,3.07
2019-05-20T06:10:27.918Z,3.67
2019-05-20T06:12:55.857Z,4.10
2019-05-20T06:15:24.625Z,3.63
2019-05-20T06:17:52.525Z,2.60
2019-05-20T06:20:20.496Z,2.77
2019-05-20T06:22:48.404Z,4.20
2019-05-20T06:25:16.653Z,2.90
2019-05-20T06:27:44.629Z,3.47
2019-05-20T06:30:12.835Z,3.80
2019-05-20T06:32:40.875Z,4.17
2019-05-20T06:35:09.191Z,5.57
2019-05-20T06:37:39.806Z,6.93
2019-05-20T06:40:07.901Z,4.73
2019-05-20T06:42:35.900Z,3.23
2019-05-20T06:45:04.579Z,2.80
2019-05-20T06:47:32.548Z,3.40
2019-05-20T06:50:00.556Z,3.43
2019-05-20T06:52:35.737Z,8.70
2019-05-20T06:54:58.164Z,4.17
2019-05-20T06:57:26.136Z,2.57
2019-05-20T06:59:54.086Z,4.50
2019-05-20T07:02:22.141Z,3.23
2019-05-20T07:04:50.105Z,6.37
2019-05-20T07:07:21.315Z,3.20
2019-05-20T07:09:47.772Z,3.50
2019-05-20T07:12:15.771Z,3.53
2019-05-20T07:14:43.753Z,2.67
2019-05-20T07:17:11.727Z,2.80
2019-05-20T07:19:39.636Z,4.03
2019-05-20T07:22:07.642Z,4.80
2019-05-20T07:24:35.625Z,3.43
2019-05-20T07:27:03.541Z,5.03
2019-05-20T07:29:31.461Z,2.80
2019-05-20T07:31:59.437Z,6.10
2019-05-20T07:34:27.500Z,3.07
2019-05-20T07:37:03.255Z,5.57
2019-05-20T07:39:25.144Z,6.00
2019-05-20T07:41:53.107Z,4.30
2019-05-20T07:44:21.123Z,3.80
2019-05-20T07:46:49.418Z,7.63
2019-05-20T07:49:17.682Z,6.23
2019-05-20T07:51:45.923Z,3.00
2019-05-20T07:54:14.353Z,5.80
2019-05-20T07:56:43.825Z,4.13
2019-05-20T07:59:13.305Z,6.13
2019-05-20T08:01:41.235Z,5.97
2019-05-20T08:04:09.233Z,3.33
2019-05-20T08:06:37.211Z,8.10
2019-05-20T08:09:06.386Z,4.17
2019-05-20T08:11:34.284Z,4.23
2019-05-20T08:14:02.337Z,5.73
2019-05-20T08:16:30.318Z,3.97
2019-05-20T08:18:58.288Z,4.40
2019-05-20T08:21:26.316Z,3.33
2019-05-20T08:23:54.321Z,3.10
2019-05-20T08:26:22.297Z,6.50
2019-05-20T08:28:50.292Z,5.87
2019-05-20T08:31:18.276Z,6.53
2019-05-20T08:33:46.266Z,3.07
2019-05-20T08:36:14.572Z,3.97
2019-05-20T08:38:42.571Z,4.23
2019-05-20T08:41:10.641Z,7.10
2019-05-20T08:43:38.618Z,5.67
2019-05-20T08:46:06.625Z,3.17
2019-05-20T08:48:34.606Z,3.30
2019-05-20T08:51:02.564Z,4.80
2019-05-20T08:53:30.569Z,4.47
2019-05-20T08:55:59.328Z,7.17
2019-05-20T08:58:27.384Z,6.60
2019-05-20T09:00:55.320Z,4.20
2019-05-20T09:03:23.402Z,4.13
2019-05-20T09:05:51.481Z,4.97
2019-05-20T09:08:19.562Z,5.27
2019-05-20T09:10:47.598Z,5.23
2019-05-20T09:13:15.595Z,3.40
2019-05-20T09:15:45.494Z,5.93
2019-05-20T09:18:13.171Z,4.40
2019-05-20T09:20:41.257Z,5.43
2019-05-20T09:23:09.317Z,5.67
2019-05-20T09:25:37.579Z,4.67
2019-05-20T09:28:05.475Z,5.40
2019-05-20T09:30:33.419Z,3.60
2019-05-20T09:33:01.367Z,3.20
2019-05-20T09:35:29.501Z,5.63
2019-05-20T09:37:57.787Z,6.37
2019-05-20T09:40:36.385Z,3.87
2019-05-20T09:43:04.392Z,4.20
2019-05-20T09:45:32.493Z,3.53
2019-05-20T09:48:00.453Z,5.13
2019-05-20T09:50:28.492Z,4.13
2019-05-20T09:52:56.404Z,4.03
2019-05-20T09:55:24.348Z,6.87
2019-05-20T09:57:52.340Z,7.57
2019-05-20T10:00:20.444Z,3.83
2019-05-20T10:02:48.421Z,5.57
2019-05-20T10:05:16.428Z,7.47
2019-05-20T10:07:44.390Z,4.90
2019-05-20T10:10:12.337Z,4.40
2019-05-20T10:12:46.530Z,6.80
2019-05-20T10:15:10.060Z,6.57
2019-05-20T10:17:38.078Z,7.80
2019-05-20T10:20:06.044Z,4.67
2019-05-20T10:22:34.144Z,6.57
2019-05-20T10:25:02.213Z,4.13
2019-05-20T10:27:30.383Z,6.20
2019-05-20T10:29:58.362Z,6.90
2019-05-20T10:32:26.323Z,5.30
2019-05-20T10:34:54.311Z,8.53
2019-05-20T10:37:22.197Z,6.37
2019-05-20T10:39:50.188Z,4.23
2019-05-20T10:42:18.137Z,4.77
2019-05-20T10:44:46.055Z,8.70
2019-05-20T10:47:14.102Z,4.05
2019-05-20T10:49:42.096Z,6.70
2019-05-20T10:52:10.113Z,3.75
2019-05-20T10:54:38.063Z,4.80
2019-05-20T10:57:05.999Z,8.10
2019-05-20T10:59:33.902Z,3.45
2019-05-20T11:02:01.864Z,5.12
2019-05-20T11:04:29.838Z,4.08
2019-05-20T11:06:57.954Z,5.90
2019-05-20T11:09:25.914Z,6.00
2019-05-20T11:11:54.252Z,5.28
2019-05-20T11:14:22.223Z,4.83
2019-05-20T11:16:50.116Z,7.65
2019-05-20T11:19:18.125Z,7.25
2019-05-20T11:21:46.060Z,10.70
2019-05-20T11:24:13.952Z,4.75
2019-05-20T11:26:41.866Z,4.62
2019-05-20T11:29:09.870Z,7.22
2019-05-20T11:31:37.856Z,5.20
2019-05-20T11:34:05.887Z,5.70
2019-05-20T11:36:33.876Z,4.12
2019-05-20T11:39:01.906Z,5.47
2019-05-20T11:41:52.176Z,4.17
2019-05-20T11:43:59.572Z,8.95
2019-05-20T11:46:27.684Z,4.65
2019-05-20T11:48:55.615Z,6.08
2019-05-20T11:51:23.602Z,4.03
2019-05-20T11:53:51.633Z,5.72
2019-05-20T11:56:19.511Z,5.90
2019-05-20T11:58:47.625Z,4.42
2019-05-20T12:01:15.627Z,7.92
2019-05-20T12:03:43.592Z,4.85
2019-05-20T12:06:11.604Z,8.53
2019-05-20T12:08:39.559Z,7.03
2019-05-20T12:11:07.527Z,5.28
2019-05-20T12:13:35.466Z,5.78
2019-05-20T12:16:03.407Z,6.60
2019-05-20T12:18:31.389Z,9.20
2019-05-20T12:20:59.345Z,10.03
2019-05-20T12:23:27.358Z,8.63
2019-05-20T12:25:55.315Z,7.50
2019-05-20T12:28:23.313Z,6.23
2019-05-20T12:30:51.275Z,4.67
2019-05-20T12:33:19.868Z,8.27
2019-05-20T12:35:48.468Z,5.87
2019-05-20T12:38:17.030Z,7.30
2019-05-20T12:40:44.988Z,6.83
2019-05-20T12:43:12.964Z,7.23
2019-05-20T12:45:40.880Z,7.17
2019-05-20T12:48:08.885Z,9.15
2019-05-20T12:50:36.824Z,7.70
2019-05-20T12:53:04.756Z,7.53
2019-05-20T12:55:32.711Z,7.93
2019-05-20T12:58:00.679Z,6.43
2019-05-20T13:00:31.444Z,7.23
2019-05-20T13:02:59.393Z,10.60
2019-05-20T13:05:27.386Z,10.33
2019-05-20T13:07:55.451Z,7.60
2019-05-20T13:10:32.283Z,9.10
2019-05-20T13:12:53.112Z,9.28
2019-05-20T13:15:21.060Z,9.30
2019-05-20T13:17:48.981Z,5.17
2019-05-20T13:20:16.991Z,7.40
2019-05-20T13:22:44.889Z,6.77
2019-05-20T13:25:12.888Z,5.97
2019-05-20T13:27:40.888Z,7.73
2019-05-20T13:30:09.060Z,9.70
2019-05-20T13:32:37.208Z,8.80
2019-05-20T13:35:05.448Z,9.70
2019-05-20T13:37:33.507Z,5.37
2019-05-20T13:40:03.232Z,4.90
2019-05-20T13:42:31.179Z,5.53
2019-05-20T13:44:59.198Z,6.43
2019-05-20T13:47:27.169Z,6.37
2019-05-20T13:49:55.213Z,7.73
2019-05-20T13:52:23.175Z,9.27
2019-05-20T13:54:51.323Z,5.17
2019-05-20T13:57:19.387Z,5.03
2019-05-20T13:59:47.359Z,4.43
2019-05-20T14:02:15.359Z,4.80
2019-05-20T14:04:43.333Z,7.43
2019-05-20T14:07:11.329Z,8.70
2019-05-20T14:09:39.218Z,9.63
2019-05-20T14:12:08.120Z,7.43
2019-05-20T14:14:36.085Z,5.20
2019-05-20T14:17:04.082Z,6.70
2019-05-20T14:19:32.054Z,5.27
2019-05-20T14:21:59.980Z,6.67
2019-05-20T14:24:27.875Z,8.23
2019-05-20T14:26:55.854Z,4.90
2019-05-20T14:29:23.869Z,5.97
2019-05-20T14:31:51.880Z,8.73
2019-05-20T14:34:19.909Z,6.77
2019-05-20T14:36:52.468Z,7.83
2019-05-20T14:39:17.606Z,6.47
2019-05-20T14:41:45.628Z,8.73
2019-05-20T14:44:13.630Z,5.37
2019-05-20T14:46:41.631Z,10.13
2019-05-20T14:49:09.565Z,8.47
2019-05-20T14:51:37.580Z,10.57
2019-05-20T14:54:05.491Z,5.67
2019-05-20T14:56:33.532Z,8.90
2019-05-20T14:59:01.575Z,9.47
2019-05-20T15:01:29.558Z,10.13
2019-05-20T15:03:57.581Z,8.00
2019-05-20T15:06:25.552Z,13.80
2019-05-20T15:08:53.567Z,7.47
2019-05-20T15:11:35.633Z,8.73
2019-05-20T15:13:51.240Z,5.80
2019-05-20T15:16:19.121Z,7.10
2019-05-20T15:18:47.056Z,5.37
2019-05-20T15:21:14.987Z,6.27
2019-05-20T15:23:42.974Z,5.80
2019-05-20T15:26:10.928Z,6.67
2019-05-20T15:28:38.848Z,5.53
2019-05-20T15:31:06.879Z,7.83
2019-05-20T15:33:36.155Z,7.80
2019-05-20T15:36:04.153Z,6.60
2019-05-20T15:38:32.125Z,7.43
2019-05-20T15:41:00.203Z,10.07
2019-05-20T15:43:28.166Z,5.20
2019-05-20T15:45:56.186Z,8.53
2019-05-20T15:48:24.133Z,5.20
2019-05-20T15:50:52.219Z,5.27
2019-05-20T15:53:20.157Z,7.83
2019-05-20T15:55:48.113Z,5.37
2019-05-20T15:58:16.110Z,6.17
2019-05-20T16:00:44.162Z,4.87
2019-05-20T16:03:12.159Z,8.17
2019-05-20T16:05:40.067Z,10.17
2019-05-20T16:08:08.108Z,5.60
2019-05-20T16:10:36.128Z,7.67
2019-05-20T16:13:04.076Z,5.63
2019-05-20T16:15:32.127Z,5.67
2019-05-20T16:18:00.138Z,12.47
2019-05-20T16:20:28.107Z,8.33
2019-05-20T16:22:56.097Z,7.03
2019-05-20T16:25:24.075Z,5.93
2019-05-20T16:27:52.157Z,6.63
2019-05-20T16:30:20.216Z,9.47
2019-05-20T16:32:48.292Z,10.07
2019-05-20T16:35:16.268Z,5.67
2019-05-20T16:37:44.329Z,5.77
2019-05-20T16:40:12.833Z,6.27
2019-05-20T16:42:41.036Z,6.90
2019-05-20T16:45:11.846Z,9.13
2019-05-20T16:47:39.004Z,7.83
2019-05-20T16:50:09.319Z,5.97
2019-05-20T16:52:38.030Z,7.57
2019-05-20T16:55:06.189Z,6.73
2019-05-20T16:57:34.188Z,7.90
2019-05-20T17:00:02.184Z,7.17
2019-05-20T17:02:30.281Z,10.10
2019-05-20T17:04:58.325Z,8.97
2019-05-20T17:07:26.333Z,5.90
2019-05-20T17:09:54.341Z,5.77
2019-05-20T17:12:22.418Z,6.50
2019-05-20T17:14:50.539Z,6.97
2019-05-20T17:17:18.531Z,7.35
2019-05-20T17:19:46.429Z,8.40
2019-05-20T17:22:14.497Z,6.47
2019-05-20T17:24:42.542Z,7.17
2019-05-20T17:27:10.722Z,6.60
2019-05-20T17:29:38.773Z,8.27
2019-05-20T17:32:06.782Z,5.57
2019-05-20T17:34:34.875Z,12.30
2019-05-20T17:37:02.855Z,7.47
2019-05-20T17:39:31.018Z,8.67
2019-05-20T17:41:59.080Z,5.83
2019-05-20T17:44:27.074Z,9.70
2019-05-20T17:46:55.069Z,8.23
2019-05-20T17:49:23.112Z,7.70
2019-05-20T17:51:51.195Z,8.13
2019-05-20T17:54:19.151Z,7.47
2019-05-20T17:56:47.188Z,6.70
2019-05-20T17:59:15.240Z,6.43
2019-05-20T18:01:43.198Z,8.13
2019-05-20T18:04:11.151Z,9.17
2019-05-20T18:06:39.207Z,10.53
2019-05-20T18:09:08.270Z,8.50
2019-05-20T18:11:36.270Z,7.07
2019-05-20T18:14:04.497Z,6.13
2019-05-20T18:16:32.600Z,6.80
2019-05-20T18:19:00.522Z,8.67
2019-05-20T18:21:28.577Z,8.83
2019-05-20T18:23:56.531Z,8.80
2019-05-20T18:26:24.544Z,9.33
2019-05-20T18:28:52.655Z,6.83
2019-05-20T18:31:32.055Z,7.30
2019-05-20T18:33:50.280Z,8.40
2019-05-20T18:36:18.359Z,9.00
2019-05-20T18:38:49.459Z,7.00
2019-05-20T18:41:16.094Z,7.83
2019-05-20T18:43:44.107Z,6.93
2019-05-20T18:46:12.152Z,6.97
2019-05-20T18:48:40.105Z,9.23
2019-05-20T18:51:08.414Z,6.63
2019-05-20T18:53:36.366Z,7.30
2019-05-20T18:56:04.325Z,12.10
2019-05-20T18:58:32.264Z,7.63
2019-05-20T19:01:00.292Z,7.70
2019-05-20T19:03:28.845Z,7.90
2019-05-20T19:05:57.079Z,10.33
2019-05-20T19:08:25.670Z,8.50
2019-05-20T19:10:53.735Z,8.43
2019-05-20T19:13:21.706Z,7.63
2019-05-20T19:15:49.644Z,7.23
2019-05-20T19:18:17.771Z,7.93
2019-05-20T19:20:45.697Z,14.90
2019-05-20T19:23:13.723Z,7.37
2019-05-20T19:25:43.934Z,7.60
2019-05-20T19:28:11.425Z,9.53
2019-05-20T19:30:39.751Z,10.67
2019-05-20T19:33:07.875Z,11.37
2019-05-20T19:35:35.865Z,8.73
2019-05-20T19:38:04.025Z,7.90
2019-05-20T19:40:31.989Z,10.43
2019-05-20T19:42:59.957Z,8.57
2019-05-20T19:45:27.938Z,8.90
2019-05-20T19:47:55.855Z,7.77
2019-05-20T19:50:23.831Z,9.50
2019-05-20T19:52:51.800Z,9.80
2019-05-20T19:55:19.853Z,9.57
2019-05-20T19:57:47.762Z,8.90
2019-05-20T20:00:16.145Z,9.23
2019-05-20T20:02:44.183Z,10.67
2019-05-20T20:05:12.140Z,12.13
2019-05-20T20:07:40.162Z,9.63
2019-05-20T20:10:08.301Z,9.80
2019-05-20T20:12:36.279Z,9.40
2019-05-20T20:15:04.613Z,9.53
2019-05-20T20:17:32.604Z,9.70
2019-05-20T20:20:00.587Z,12.10
2019-05-20T20:22:28.517Z,13.67
2019-05-20T20:24:56.575Z,10.50
2019-05-20T20:27:24.560Z,15.23
2019-05-20T20:29:52.497Z,10.63
2019-05-20T20:32:36.681Z,11.27
2019-05-20T20:34:50.178Z,12.23
2019-05-20T20:37:18.174Z,9.67
2019-05-20T20:39:46.332Z,12.07
2019-05-20T20:42:14.327Z,10.67
2019-05-20T20:44:42.245Z,10.50
2019-05-20T20:47:10.295Z,11.43
2019-05-20T20:49:38.310Z,10.90
2019-05-20T20:52:06.235Z,13.03
2019-05-20T20:54:34.200Z,11.13
2019-05-20T20:57:02.208Z,10.47
2019-05-20T20:59:30.202Z,11.07
2019-05-20T21:01:59.203Z,15.80
2019-05-20T21:04:27.452Z,11.13
2019-05-20T21:06:55.376Z,11.07
2019-05-20T21:09:23.407Z,11.47
2019-05-20T21:11:51.367Z,12.87
2019-05-20T21:14:19.282Z,9.67
2019-05-20T21:16:47.456Z,11.07
2019-05-20T21:19:15.427Z,11.83
2019-05-20T21:21:43.432Z,10.07
2019-05-20T21:24:11.399Z,12.53
2019-05-20T21:26:39.464Z,11.40
2019-05-20T21:29:07.462Z,10.50
2019-05-20T21:31:35.483Z,10.10
2019-05-20T21:34:03.491Z,9.60
2019-05-20T21:36:45.016Z,11.53
2019-05-20T21:39:01.141Z,9.97
2019-05-20T21:41:29.091Z,9.67
2019-05-20T21:43:57.002Z,11.23
2019-05-20T21:46:24.995Z,10.00
2019-05-20T21:48:52.948Z,9.87
2019-05-20T21:51:21.018Z,11.77
2019-05-20T21:53:49.012Z,9.47
2019-05-20T21:56:17.003Z,11.93
2019-05-20T21:58:44.943Z,13.47
2019-05-20T22:01:12.842Z,10.30
2019-05-20T22:03:40.755Z,9.23
2019-05-20T22:06:08.648Z,9.70
2019-05-20T22:08:36.543Z,11.47
2019-05-20T22:11:04.459Z,12.03
2019-05-20T22:13:32.400Z,9.50
2019-05-20T22:16:00.297Z,9.40
2019-05-20T22:18:28.311Z,13.13
2019-05-20T22:20:56.215Z,10.03
2019-05-20T22:23:37.795Z,9.73
2019-05-20T22:26:05.757Z,9.63
2019-05-20T22:28:33.707Z,8.70
2019-05-20T22:31:01.713Z,8.37
2019-05-20T22:33:41.040Z,9.93
2019-05-20T22:35:59.322Z,9.73
2019-05-20T22:38:27.327Z,10.40
2019-05-20T22:40:55.222Z,10.47
2019-05-20T22:43:23.185Z,8.90
2019-05-20T22:45:51.133Z,9.10
2019-05-20T22:48:19.080Z,8.33
2019-05-20T22:50:48.894Z,8.17
2019-05-20T22:53:16.639Z,10.13
2019-05-20T22:55:44.642Z,8.47
2019-05-20T22:58:12.651Z,8.50
2019-05-20T23:00:44.552Z,10.57
2019-05-20T23:03:12.539Z,9.50
2019-05-20T23:05:40.432Z,9.37
2019-05-20T23:08:08.344Z,7.93
2019-05-20T23:10:36.307Z,9.40
2019-05-20T23:13:04.328Z,8.27
2019-05-20T23:15:32.299Z,8.33
2019-05-20T23:18:00.299Z,9.23
2019-05-20T23:20:28.311Z,12.23
2019-05-20T23:22:56.347Z,8.20
2019-05-20T23:25:24.263Z,9.70
2019-05-20T23:27:52.184Z,7.60
2019-05-20T23:30:20.319Z,7.97
2019-05-20T23:32:48.277Z,8.37
2019-05-20T23:35:16.241Z,11.27
2019-05-20T23:37:44.153Z,7.50
2019-05-20T23:40:12.210Z,8.70
2019-05-20T23:42:40.188Z,8.03
2019-05-20T23:45:08.774Z,8.03
2019-05-20T23:47:36.838Z,8.30
2019-05-20T23:50:07.482Z,7.90
2019-05-20T23:52:35.481Z,7.70
2019-05-20T23:55:03.419Z,7.77
2019-05-20T23:57:31.310Z,7.83
2019-05-20T23:59:59.301Z,7.80
